Time;durP1;ratioP1;P1;durP2;ratioP2;P2;SDS_P1;SDS_P2;PMS_P1;PMS_P2;Temp;Humidity;BMP_temperature;BMP_pressure;BME280_temperature;BME280_humidity;BME280_pressure;Samples;Min_cycle;Max_cycle;Signal;HPM_P1;HPM_P2
2022/06/26 00:00:32;;;;;;;5.13;4.40;;;20.40;99.90;;;;;;7365828;19;20356;-77
2022/06/26 00:02:58;;;;;;;5.53;5.03;;;20.40;99.90;;;;;;7370609;19;20345;-77
2022/06/26 00:05:23;;;;;;;5.70;5.20;;;20.40;99.90;;;;;;7373340;19;20323;-77
2022/06/26 00:07:49;;;;;;;6.23;5.73;;;20.40;99.90;;;;;;7371591;19;20400;-77
2022/06/26 00:10:15;;;;;;;6.30;5.80;;;20.50;99.90;;;;;;7368693;19;20420;-77
2022/06/26 00:12:40;;;;;;;5.03;4.63;;;20.40;99.90;;;;;;7373310;19;20341;-77
2022/06/26 00:15:07;;;;;;;5.97;5.47;;;20.30;99.90;;;;;;7371035;19;20888;-77
2022/06/26 00:17:32;;;;;;;5.73;5.30;;;20.30;99.90;;;;;;7373971;19;20320;-77
2022/06/26 00:19:58;;;;;;;5.38;4.97;;;20.20;99.90;;;;;;7371449;19;20349;-78
2022/06/26 00:22:23;;;;;;;5.18;4.68;;;20.20;99.90;;;;;;7371545;19;20868;-77
2022/06/26 00:24:49;;;;;;;5.37;4.87;;;20.10;99.90;;;;;;7373488;19;20321;-77
2022/06/26 00:27:15;;;;;;;4.90;4.50;;;20.10;99.90;;;;;;7372206;19;20357;-77
2022/06/26 00:29:40;;;;;;;5.60;5.20;;;20.10;99.90;;;;;;7369081;19;20316;-77
2022/06/26 00:32:06;;;;;;;6.00;5.50;;;20.10;99.90;;;;;;7370118;19;20898;-77
2022/06/26 00:34:32;;;;;;;6.07;5.50;;;20.00;99.90;;;;;;7373712;19;20352;-77
2022/06/26 00:36:57;;;;;;;5.93;5.43;;;20.00;99.90;;;;;;7371374;19;20341;-77
2022/06/26 00:39:23;;;;;;;7.70;5.40;;;19.90;99.90;;;;;;7371892;19;20316;-77
2022/06/26 00:41:51;;;;;;;5.00;4.60;;;19.90;99.90;;;;;;7368298;19;21402;-77
2022/06/26 00:44:22;;;;;;;5.45;4.97;;;19.90;99.90;;;;;;7375070;19;20765;-76
2022/06/26 00:46:47;;;;;;;5.25;4.85;;;19.90;99.90;;;;;;7370455;19;20320;-77
2022/06/26 00:49:13;;;;;;;4.90;4.40;;;19.90;99.90;;;;;;7370712;19;20382;-77
2022/06/26 00:51:51;;;;;;;4.50;4.10;;;19.90;99.90;;;;;;7370158;19;20337;-76
2022/06/26 00:54:17;;;;;;;4.85;4.45;;;19.90;99.90;;;;;;7370798;19;20331;-76
2022/06/26 00:56:43;;;;;;;4.88;3.75;;;19.90;99.90;;;;;;7369276;19;20308;-76
2022/06/26 00:59:09;;;;;;;5.50;5.10;;;19.90;99.90;;;;;;7372368;19;20336;-77
2022/06/26 01:01:34;;;;;;;6.25;5.03;;;19.90;99.90;;;;;;7370140;19;20324;-77
2022/06/26 01:04:01;;;;;;;5.80;5.30;;;19.80;99.90;;;;;;7371558;19;21019;-78
2022/06/26 01:06:27;;;;;;;5.20;4.80;;;19.80;99.90;;;;;;7372911;19;20320;-77
2022/06/26 01:08:53;;;;;;;4.90;4.50;;;19.70;99.90;;;;;;7369812;19;20363;-76
2022/06/26 01:11:18;;;;;;;5.30;4.90;;;19.70;99.90;;;;;;7371631;19;20834;-77
2022/06/26 01:13:45;;;;;;;5.17;4.77;;;19.70;99.90;;;;;;7375873;19;21003;-77
2022/06/26 01:16:14;;;;;;;4.70;4.30;;;19.70;99.90;;;;;;7370584;19;20328;-77
2022/06/26 01:18:41;;;;;;;5.20;4.80;;;19.70;99.90;;;;;;7368810;19;20341;-77
2022/06/26 01:21:06;;;;;;;5.07;4.63;;;19.70;99.90;;;;;;7369551;19;20470;-77
2022/06/26 01:23:32;;;;;;;4.90;4.18;;;19.60;99.90;;;;;;7371684;19;20978;-77
2022/06/26 01:25:57;;;;;;;6.27;5.77;;;19.60;99.90;;;;;;7367720;19;20928;-77
2022/06/26 01:28:23;;;;;;;5.67;5.17;;;19.60;99.90;;;;;;7369663;19;20371;-77
2022/06/26 01:30:49;;;;;;;5.25;4.80;;;19.50;99.90;;;;;;7367378;19;20349;-77
2022/06/26 01:33:15;;;;;;;5.75;5.25;;;19.50;99.90;;;;;;7372782;19;20360;-76
2022/06/26 01:35:41;;;;;;;4.77;4.37;;;19.50;99.90;;;;;;7372207;19;20358;-77
2022/06/26 01:38:13;;;;;;;5.30;4.90;;;19.50;99.90;;;;;;7375677;19;20818;-77
2022/06/26 01:40:39;;;;;;;5.65;5.15;;;19.50;99.90;;;;;;7374464;19;20344;-77
2022/06/26 01:43:08;;;;;;;5.70;5.20;;;19.50;99.90;;;;;;7378210;19;20324;-77
2022/06/26 01:45:34;;;;;;;4.90;4.50;;;19.50;99.90;;;;;;7374607;19;20301;-76
2022/06/26 01:48:00;;;;;;;6.18;5.57;;;19.40;99.90;;;;;;7376964;19;21041;-77
2022/06/26 01:50:25;;;;;;;6.40;5.37;;;19.40;99.90;;;;;;7374042;19;20301;-76
2022/06/26 01:52:51;;;;;;;5.20;4.80;;;19.40;99.90;;;;;;7375536;19;20388;-76
2022/06/26 01:55:17;;;;;;;6.50;5.90;;;19.30;99.90;;;;;;7376617;19;20336;-76
2022/06/26 01:57:44;;;;;;;5.23;4.83;;;19.40;99.90;;;;;;7377873;19;21367;-76
2022/06/26 02:00:22;;;;;;;5.90;5.27;;;19.30;99.90;;;;;;7372898;19;21207;-76
2022/06/26 02:02:48;;;;;;;5.47;5.03;;;19.30;99.90;;;;;;7376676;19;20421;-77
2022/06/26 02:05:13;;;;;;;6.43;5.83;;;19.30;99.90;;;;;;7374076;19;20896;-76
2022/06/26 02:07:39;;;;;;;5.72;5.22;;;19.20;99.90;;;;;;7372884;19;20378;-76
2022/06/26 02:15:36;;;;;;;6.00;5.50;;;19.10;99.90;;;;;;7276720;19;2004236;-76
2022/06/26 02:18:02;;;;;;;5.93;5.43;;;19.10;99.90;;;;;;7382114;19;20324;-76
2022/06/26 02:20:27;;;;;;;5.03;4.57;;;19.10;99.90;;;;;;7372616;19;20337;-76
2022/06/26 02:22:53;;;;;;;4.70;4.30;;;19.00;99.90;;;;;;7380104;19;20321;-76
2022/06/26 02:25:18;;;;;;;4.90;4.50;;;19.00;99.90;;;;;;7373448;19;20432;-76
2022/06/26 02:27:45;;;;;;;5.63;5.13;;;19.00;99.90;;;;;;7376250;19;20343;-76
2022/06/26 02:30:11;;;;;;;6.80;5.03;;;19.00;99.90;;;;;;7373242;19;20428;-76
2022/06/26 02:32:36;;;;;;;5.27;4.37;;;19.00;99.90;;;;;;7376115;19;20847;-76
2022/06/26 02:35:02;;;;;;;4.60;4.20;;;19.00;99.90;;;;;;7375968;19;20352;-76
2022/06/26 02:37:28;;;;;;;4.57;4.18;;;18.90;99.90;;;;;;7377519;19;20328;-76
2022/06/26 02:39:53;;;;;;;5.10;4.03;;;18.90;99.90;;;;;;7375457;19;20377;-76
2022/06/26 02:42:22;;;;;;;4.85;4.35;;;18.90;99.90;;;;;;7375293;19;20324;-76
2022/06/26 02:44:47;;;;;;;4.23;3.90;;;19.00;99.90;;;;;;7375694;19;20317;-76
2022/06/26 02:47:13;;;;;;;4.28;3.97;;;18.90;99.90;;;;;;7374594;19;20811;-76
2022/06/26 02:49:38;;;;;;;4.70;4.30;;;18.80;99.90;;;;;;7376248;19;20337;-76
2022/06/26 02:52:04;;;;;;;4.87;4.47;;;18.90;99.90;;;;;;7379316;19;20352;-76
2022/06/26 02:54:30;;;;;;;5.03;4.07;;;18.80;99.90;;;;;;7377492;19;20364;-76
2022/06/26 02:56:55;;;;;;;5.33;4.73;;;18.80;99.90;;;;;;7376656;19;20362;-76
2022/06/26 02:59:21;;;;;;;4.50;4.20;;;18.80;99.90;;;;;;7376098;19;20332;-76
2022/06/26 03:01:46;;;;;;;4.50;4.10;;;18.80;99.90;;;;;;7372624;19;20356;-76
2022/06/26 03:04:38;;;;;;;4.80;4.07;;;18.70;99.90;;;;;;7270826;19;2004392;-76
2022/06/26 03:07:03;;;;;;;4.35;3.60;;;18.70;99.90;;;;;;7375254;19;20324;-76
2022/06/26 03:09:29;;;;;;;3.97;3.67;;;18.70;99.90;;;;;;7374640;19;20351;-76
2022/06/26 03:11:55;;;;;;;4.28;3.95;;;18.70;99.90;;;;;;7372328;19;20890;-76
2022/06/26 03:14:22;;;;;;;4.85;4.38;;;18.70;99.90;;;;;;7377579;19;20321;-76
2022/06/26 03:16:50;;;;;;;4.60;4.20;;;18.70;99.90;;;;;;7372820;19;20392;-76
2022/06/26 03:19:16;;;;;;;4.05;3.75;;;18.70;99.90;;;;;;7375838;19;20891;-76
2022/06/26 03:21:41;;;;;;;4.90;4.50;;;18.70;99.90;;;;;;7372078;19;20316;-76
2022/06/26 03:24:12;;;;;;;5.70;5.20;;;18.70;99.90;;;;;;7376070;19;20345;-76
2022/06/26 03:26:38;;;;;;;5.22;4.82;;;18.70;99.90;;;;;;7374547;19;21103;-76
2022/06/26 03:29:09;;;;;;;5.10;4.70;;;18.60;99.90;;;;;;7376168;19;20324;-76
2022/06/26 03:31:36;;;;;;;6.20;5.70;;;18.60;99.90;;;;;;7370517;19;20340;-76
2022/06/26 03:34:02;;;;;;;6.13;5.53;;;18.70;99.90;;;;;;7375807;19;20345;-77
2022/06/26 03:36:28;;;;;;;6.87;5.00;;;18.70;99.90;;;;;;7375551;19;20336;-76
2022/06/26 03:38:55;;;;;;;5.30;4.80;;;18.70;99.90;;;;;;7358566;19;20351;-76
2022/06/26 03:41:23;;;;;;;6.20;5.37;;;18.70;99.90;;;;;;7368148;19;20297;-76
2022/06/26 03:43:48;;;;;;;5.80;5.30;;;18.80;99.90;;;;;;7365898;19;20384;-76
2022/06/26 03:46:14;;;;;;;6.27;5.77;;;18.80;99.90;;;;;;7374383;19;20383;-76
2022/06/26 03:48:43;;;;;;;5.82;5.32;;;18.90;99.90;;;;;;7375350;19;20674;-76
2022/06/26 03:51:09;;;;;;;6.05;5.45;;;18.90;99.90;;;;;;7369433;19;20356;-77
2022/06/26 03:53:35;;;;;;;6.28;5.65;;;19.00;99.90;;;;;;7372330;19;20308;-77
2022/06/26 03:56:01;;;;;;;7.85;7.05;;;19.00;99.90;;;;;;7373787;19;20813;-76
2022/06/26 03:58:26;;;;;;;7.28;5.90;;;19.10;99.90;;;;;;7372330;19;20328;-76
2022/06/26 04:00:52;;;;;;;5.45;5.05;;;19.10;99.90;;;;;;7368658;19;20328;-76
2022/06/26 04:03:18;;;;;;;6.60;6.00;;;19.20;99.90;;;;;;7375490;19;20995;-76
2022/06/26 04:05:44;;;;;;;6.47;5.88;;;19.30;99.90;;;;;;7375542;19;20309;-76
2022/06/26 04:08:10;;;;;;;7.00;6.40;;;19.40;99.90;;;;;;7375558;19;20563;-76
2022/06/26 04:10:41;;;;;;;6.57;6.05;;;19.40;99.90;;;;;;7369857;19;20320;-76
2022/06/26 04:13:23;;;;;;;5.90;5.40;;;19.50;99.90;;;;;;7375056;19;20423;-76
2022/06/26 04:15:49;;;;;;;6.27;5.67;;;19.60;99.90;;;;;;7372427;19;20419;-76
2022/06/26 04:18:14;;;;;;;5.25;4.82;;;19.70;99.90;;;;;;7372537;19;20345;-76
2022/06/26 04:20:40;;;;;;;5.90;5.40;;;19.70;99.90;;;;;;7369104;19;20384;-76
2022/06/26 04:23:08;;;;;;;6.20;5.60;;;19.80;99.90;;;;;;7375007;19;20344;-77
2022/06/26 04:25:35;;;;;;;7.07;6.30;;;19.90;99.90;;;;;;7371265;19;20324;-76
2022/06/26 04:28:03;;;;;;;6.75;6.15;;;19.90;99.90;;;;;;7376591;19;20341;-76
2022/06/26 04:30:32;;;;;;;7.10;6.50;;;20.00;99.90;;;;;;7371962;19;20332;-76
2022/06/26 04:32:58;;;;;;;7.07;6.40;;;20.10;99.90;;;;;;7377139;19;20726;-76
2022/06/26 04:35:23;;;;;;;6.30;5.70;;;20.20;99.90;;;;;;7373096;19;22026;-76
2022/06/26 04:37:49;;;;;;;6.68;6.07;;;20.30;99.90;;;;;;7372622;19;20348;-76
2022/06/26 04:40:15;;;;;;;6.32;5.82;;;20.40;99.90;;;;;;7369009;19;20407;-77
2022/06/26 04:42:41;;;;;;;5.75;5.22;;;20.50;99.90;;;;;;7373730;19;20320;-77
2022/06/26 04:45:08;;;;;;;6.07;5.55;;;20.70;99.90;;;;;;7372952;19;20374;-77
2022/06/26 04:47:34;;;;;;;7.33;6.73;;;20.80;99.90;;;;;;7372756;19;20297;-76
2022/06/26 04:50:11;;;;;;;7.30;6.60;;;20.90;99.90;;;;;;7268195;19;2004354;-77
2022/06/26 04:52:37;;;;;;;6.27;5.67;;;21.00;99.90;;;;;;7373677;19;20388;-77
2022/06/26 04:55:04;;;;;;;5.95;5.47;;;21.10;99.90;;;;;;7373293;19;20676;-77
2022/06/26 04:57:34;;;;;;;6.93;6.32;;;21.20;99.90;;;;;;7371811;19;20334;-77
2022/06/26 04:59:59;;;;;;;6.70;6.10;;;21.40;99.90;;;;;;7369077;19;20329;-77
2022/06/26 05:02:25;;;;;;;5.77;5.27;;;21.40;99.90;;;;;;7369616;19;20357;-77
2022/06/26 05:05:01;;;;;;;5.70;5.20;;;21.50;99.90;;;;;;7370718;19;20332;-77
2022/06/26 05:07:30;;;;;;;5.47;5.00;;;21.60;99.90;;;;;;7370849;19;20309;-77
2022/06/26 05:09:55;;;;;;;6.05;5.55;;;21.70;99.90;;;;;;7369737;19;20360;-77
2022/06/26 05:12:21;;;;;;;5.90;5.40;;;21.80;99.90;;;;;;7378643;19;20388;-77
2022/06/26 05:15:06;;;;;;;6.10;5.50;;;21.90;99.90;;;;;;7377651;19;20423;-77
2022/06/26 05:17:37;;;;;;;6.22;5.72;;;22.00;99.90;;;;;;7277909;19;2004317;-77
2022/06/26 05:20:05;;;;;;;5.87;5.27;;;22.10;99.90;;;;;;7378924;19;20376;-77
2022/06/26 05:22:31;;;;;;;5.45;4.82;;;22.30;99.90;;;;;;7380869;19;21358;-78
2022/06/26 05:24:59;;;;;;;6.03;5.53;;;22.40;99.90;;;;;;7382636;19;20340;-77
2022/06/26 05:27:24;;;;;;;6.72;6.13;;;22.50;99.90;;;;;;7379968;19;20336;-77
2022/06/26 05:29:51;;;;;;;4.72;4.30;;;22.50;99.90;;;;;;7376047;19;20344;-77
2022/06/26 05:32:16;;;;;;;6.40;5.80;;;22.60;99.90;;;;;;7377948;19;20348;-77
2022/06/26 05:34:42;;;;;;;6.25;5.65;;;22.60;99.90;;;;;;7376395;19;20842;-77
2022/06/26 05:37:07;;;;;;;6.30;5.80;;;22.70;99.90;;;;;;7380350;19;20351;-77
2022/06/26 05:39:33;;;;;;;5.22;4.82;;;22.70;99.90;;;;;;7378514;19;20729;-77
2022/06/26 05:41:59;;;;;;;5.15;4.60;;;22.80;99.90;;;;;;7376549;19;20340;-77
2022/06/26 05:44:24;;;;;;;4.80;4.50;;;22.90;99.90;;;;;;7379898;19;20444;-77
2022/06/26 05:46:51;;;;;;;4.88;4.47;;;22.90;99.90;;;;;;7378920;19;20336;-77
2022/06/26 05:49:28;;;;;;;4.93;4.53;;;23.00;99.90;;;;;;7377931;19;20935;-77
2022/06/26 05:52:11;;;;;;;7.03;4.88;;;23.10;99.90;;;;;;7274636;19;2004265;-77
2022/06/26 05:54:51;;;;;;;5.13;4.73;;;23.20;99.90;;;;;;7376005;19;21133;-77
2022/06/26 05:57:33;;;;;;;4.65;3.90;;;23.30;99.90;;;;;;7378378;19;20305;-77
2022/06/26 06:00:17;;;;;;;5.05;4.55;;;23.40;99.90;;;;;;7272072;19;2004445;-76
2022/06/26 06:02:43;;;;;;;4.40;4.10;;;23.50;99.90;;;;;;7378654;19;20671;-77
2022/06/26 06:05:10;;;;;;;4.68;4.28;;;23.60;99.90;;;;;;7377951;19;20341;-77
2022/06/26 06:07:36;;;;;;;4.90;4.00;;;23.70;99.90;;;;;;7381016;19;20320;-77
2022/06/26 06:10:06;;;;;;;4.40;4.10;;;23.80;99.90;;;;;;7378061;19;20356;-77
2022/06/26 06:12:32;;;;;;;4.60;4.20;;;24.00;99.90;;;;;;7385333;19;20419;-78
2022/06/26 06:14:57;;;;;;;4.80;4.00;;;24.10;99.90;;;;;;7376576;19;20359;-77
2022/06/26 06:17:35;;;;;;;4.40;4.00;;;24.30;99.90;;;;;;7377233;19;20321;-77
2022/06/26 06:20:04;;;;;;;4.50;4.15;;;24.40;99.90;;;;;;7376050;19;20348;-77
2022/06/26 06:22:35;;;;;;;6.82;4.38;;;24.50;99.90;;;;;;7378963;19;20332;-77
2022/06/26 06:25:00;;;;;;;4.90;4.50;;;24.70;99.90;;;;;;7377573;19;20411;-77
2022/06/26 06:27:27;;;;;;;4.30;3.70;;;24.70;99.90;;;;;;7379704;19;20445;-77
2022/06/26 06:29:56;;;;;;;4.65;4.25;;;24.80;99.90;;;;;;7353103;19;20514;-77
2022/06/26 06:32:22;;;;;;;4.70;4.30;;;25.10;99.90;;;;;;7373402;19;20369;-77
2022/06/26 06:34:47;;;;;;;4.25;3.90;;;25.10;99.90;;;;;;7376027;19;21077;-77
2022/06/26 06:37:14;;;;;;;4.30;3.90;;;25.10;99.90;;;;;;7377058;19;20939;-78
2022/06/26 06:39:41;;;;;;;4.30;4.00;;;25.20;99.90;;;;;;7375188;19;20348;-77
2022/06/26 06:42:07;;;;;;;4.03;3.63;;;25.20;99.90;;;;;;7378583;19;21144;-77
2022/06/26 06:44:33;;;;;;;4.30;3.90;;;25.30;99.90;;;;;;7375696;19;20296;-77
2022/06/26 06:47:17;;;;;;;4.13;3.83;;;25.30;99.90;;;;;;7274841;19;2004465;-77
2022/06/26 06:50:21;;;;;;;3.70;3.40;;;25.50;99.90;;;;;;7271364;19;2004432;-77
2022/06/26 06:52:46;;;;;;;3.80;3.50;;;25.50;99.90;;;;;;7371301;19;20325;-77
2022/06/26 06:55:13;;;;;;;3.95;3.65;;;25.70;99.90;;;;;;7374042;19;20344;-77
2022/06/26 06:57:39;;;;;;;3.40;3.20;;;25.90;99.90;;;;;;7377195;19;20305;-78
2022/06/26 07:00:05;;;;;;;3.75;3.45;;;26.10;99.90;;;;;;7375373;19;20344;-77
2022/06/26 07:02:31;;;;;;;3.80;3.40;;;26.40;99.90;;;;;;7376942;19;20304;-78
2022/06/26 07:05:00;;;;;;;4.05;3.10;;;26.50;99.90;;;;;;7376826;19;21234;-78
2022/06/26 07:07:27;;;;;;;3.50;3.08;;;26.70;99.90;;;;;;7377103;19;20353;-78
2022/06/26 07:09:52;;;;;;;3.28;3.03;;;26.90;99.90;;;;;;7373829;19;20908;-78
2022/06/26 07:12:18;;;;;;;3.63;3.33;;;27.00;99.90;;;;;;7375518;19;20353;-78
2022/06/26 07:14:44;;;;;;;3.30;2.70;;;27.00;99.90;;;;;;7376603;19;20332;-78
2022/06/26 07:17:09;;;;;;;3.00;2.80;;;27.10;99.90;;;;;;7373469;19;20337;-79
2022/06/26 07:19:35;;;;;;;2.80;2.60;;;27.40;99.90;;;;;;7374387;19;20367;-78
2022/06/26 07:22:00;;;;;;;2.80;2.60;;;27.50;99.90;;;;;;7372837;19;20705;-78
2022/06/26 07:24:26;;;;;;;3.20;2.92;;;27.40;99.90;;;;;;7376529;19;20976;-78
2022/06/26 07:27:10;;;;;;;3.00;2.80;;;27.40;99.90;;;;;;7273059;19;2004522;-78
2022/06/26 07:29:41;;;;;;;3.17;2.60;;;27.60;99.90;;;;;;7372553;19;20348;-78
2022/06/26 07:32:06;;;;;;;2.65;2.45;;;27.70;99.90;;;;;;7375724;19;20678;-78
2022/06/26 07:34:32;;;;;;;5.00;2.65;;;28.00;99.90;;;;;;7373294;19;20381;-78
2022/06/26 07:37:00;;;;;;;2.70;2.50;;;28.00;99.90;;;;;;7375827;19;20324;-78
2022/06/26 07:39:25;;;;;;;3.63;2.80;;;27.90;99.90;;;;;;7374020;19;20368;-78
2022/06/26 07:41:51;;;;;;;3.00;2.70;;;28.00;99.90;;;;;;7373934;19;20313;-77
2022/06/26 07:44:17;;;;;;;3.20;2.90;;;28.20;99.90;;;;;;7375724;19;20351;-78
2022/06/26 07:46:44;;;;;;;2.85;2.65;;;28.40;99.90;;;;;;7374574;19;20353;-76
2022/06/26 07:49:13;;;;;;;2.90;2.70;;;28.50;99.90;;;;;;7373158;19;20686;-77
2022/06/26 07:51:39;;;;;;;2.87;2.67;;;28.70;99.90;;;;;;7375675;19;20385;-78
2022/06/26 07:54:05;;;;;;;3.70;3.40;;;28.70;99.90;;;;;;7377821;19;20444;-77
2022/06/26 07:56:31;;;;;;;3.25;3.03;;;28.70;99.90;;;;;;7378623;19;20843;-77
2022/06/26 07:58:56;;;;;;;3.07;2.77;;;28.60;99.90;;;;;;7375376;19;20344;-77
2022/06/26 08:01:22;;;;;;;3.30;2.90;;;28.60;99.90;;;;;;7370534;19;20332;-77
2022/06/26 08:03:47;;;;;;;2.80;2.60;;;28.80;99.90;;;;;;7373676;19;20316;-77
2022/06/26 08:06:14;;;;;;;3.20;2.90;;;28.80;99.90;;;;;;7375020;19;20319;-77
2022/06/26 08:08:39;;;;;;;5.10;3.10;;;28.90;99.90;;;;;;7373471;19;21166;-77
2022/06/26 08:11:05;;;;;;;3.05;2.85;;;29.30;99.90;;;;;;7373145;19;20456;-77
2022/06/26 08:13:30;;;;;;;4.18;3.15;;;29.40;99.90;;;;;;7374669;19;20331;-77
2022/06/26 08:15:56;;;;;;;3.45;3.15;;;29.60;99.90;;;;;;7372813;19;20321;-77
2022/06/26 08:18:22;;;;;;;3.10;2.80;;;29.90;99.90;;;;;;7374825;19;20376;-77
2022/06/26 08:20:47;;;;;;;3.40;3.20;;;30.10;99.90;;;;;;7370532;19;20324;-76
2022/06/26 08:23:13;;;;;;;3.00;2.80;;;30.30;99.90;;;;;;7373615;19;20341;-77
2022/06/26 08:25:39;;;;;;;3.70;3.40;;;30.30;99.90;;;;;;7373181;19;20328;-77
2022/06/26 08:28:04;;;;;;;3.40;3.10;;;30.00;99.90;;;;;;7373760;19;20328;-77
2022/06/26 08:30:30;;;;;;;3.53;3.22;;;30.10;99.90;;;;;;7371108;19;20338;-76
2022/06/26 08:32:58;;;;;;;3.43;3.13;;;30.10;99.90;;;;;;7369286;19;20344;-77
2022/06/26 08:35:24;;;;;;;4.82;3.28;;;30.40;99.90;;;;;;7372593;19;20375;-76
2022/06/26 08:37:50;;;;;;;4.10;3.30;;;30.40;99.90;;;;;;7371094;19;20333;-76
2022/06/26 08:40:16;;;;;;;3.63;3.33;;;30.70;99.90;;;;;;7372299;19;20345;-77
2022/06/26 08:42:42;;;;;;;3.60;3.30;;;31.00;99.90;;;;;;7368988;19;20340;-77
2022/06/26 08:45:08;;;;;;;3.20;3.00;;;31.00;99.90;;;;;;7368873;19;21093;-77
2022/06/26 08:47:40;;;;;;;3.10;2.90;;;31.40;99.90;;;;;;7372136;19;20871;-77
2022/06/26 08:50:07;;;;;;;3.15;2.95;;;31.60;99.90;;;;;;7372948;19;20357;-77
2022/06/26 08:52:32;;;;;;;3.22;3.03;;;31.20;98.10;;;;;;7373680;19;20795;-77
2022/06/26 08:54:58;;;;;;;3.25;3.00;;;31.30;99.90;;;;;;7370882;19;20337;-76
2022/06/26 08:57:23;;;;;;;3.38;3.08;;;31.40;99.90;;;;;;7370680;19;20329;-77
2022/06/26 08:59:49;;;;;;;3.15;2.90;;;31.50;99.90;;;;;;7367665;19;20340;-77
2022/06/26 09:02:14;;;;;;;3.38;3.08;;;31.70;99.90;;;;;;7372890;19;21255;-77
2022/06/26 09:04:40;;;;;;;3.38;3.08;;;31.40;99.00;;;;;;7369520;19;20327;-77
2022/06/26 09:07:06;;;;;;;3.43;3.13;;;31.70;99.90;;;;;;7371286;19;20346;-77
2022/06/26 09:09:32;;;;;;;3.03;2.72;;;32.10;99.80;;;;;;7369412;19;20812;-77
2022/06/26 09:11:59;;;;;;;3.28;3.03;;;32.40;97.00;;;;;;7364007;19;20360;-76
2022/06/26 09:14:25;;;;;;;3.50;3.20;;;32.40;97.40;;;;;;7369027;19;20338;-76
2022/06/26 09:16:51;;;;;;;3.13;2.92;;;32.40;97.00;;;;;;7365981;19;20368;-76
2022/06/26 09:19:19;;;;;;;2.78;2.58;;;32.20;95.40;;;;;;7367742;19;20341;-76
2022/06/26 09:21:45;;;;;;;5.40;3.10;;;32.70;96.60;;;;;;7367091;19;20380;-76
2022/06/26 09:24:11;;;;;;;3.97;3.10;;;33.10;95.00;;;;;;7371286;19;20343;-77
2022/06/26 09:26:38;;;;;;;3.42;3.13;;;32.70;93.80;;;;;;7370331;19;20319;-77
2022/06/26 09:29:18;;;;;;;3.33;3.03;;;32.80;94.00;;;;;;7372527;19;20347;-77
2022/06/26 09:31:43;;;;;;;2.80;2.60;;;32.60;92.50;;;;;;7268065;19;2004408;-77
2022/06/26 09:34:20;;;;;;;3.93;2.90;;;32.80;95.10;;;;;;7376015;19;20377;-77
2022/06/26 09:36:58;;;;;;;2.50;2.30;;;32.90;91.20;;;;;;7267115;19;2004495;-76
2022/06/26 09:39:25;;;;;;;2.55;2.35;;;33.50;92.00;;;;;;7370151;19;20676;-77
2022/06/26 09:41:50;;;;;;;3.15;2.85;;;33.90;91.00;;;;;;7364230;19;20329;-76
2022/06/26 09:44:19;;;;;;;2.90;2.70;;;33.40;87.90;;;;;;7368278;19;20336;-76
2022/06/26 09:46:45;;;;;;;2.90;2.70;;;33.70;86.20;;;;;;7368064;19;20329;-76
2022/06/26 09:49:10;;;;;;;2.70;2.50;;;33.90;87.70;;;;;;7369044;19;20339;-77
2022/06/26 09:51:36;;;;;;;3.00;2.60;;;34.20;92.10;;;;;;7366032;19;20340;-77
2022/06/26 09:54:02;;;;;;;3.70;2.88;;;34.00;79.70;;;;;;7365966;19;20309;-76
2022/06/26 09:56:27;;;;;;;2.92;2.65;;;33.50;82.90;;;;;;7367648;19;20348;-77
2022/06/26 09:58:54;;;;;;;2.97;2.78;;;33.90;87.80;;;;;;7372843;19;21345;-76
2022/06/26 10:06:48;;;;;;;2.90;2.70;;;34.90;85.50;;;;;;7271299;19;2004343;-77
2022/06/26 10:09:13;;;;;;;3.50;3.20;;;34.70;83.00;;;;;;7380219;19;20781;-76
2022/06/26 10:11:40;;;;;;;3.00;2.70;;;34.60;81.20;;;;;;7378045;19;20309;-77
2022/06/26 10:14:19;;;;;;;3.15;2.95;;;34.40;82.70;;;;;;7380363;19;20337;-77
2022/06/26 10:16:54;;;;;;;2.80;2.60;;;34.40;79.70;;;;;;7274203;19;2007557;-77
2022/06/26 10:19:36;;;;;;;2.60;2.40;;;34.40;77.40;;;;;;7377706;19;20367;-79
2022/06/26 10:22:02;;;;;;;2.70;2.50;;;34.90;80.90;;;;;;7373386;19;21166;-78
2022/06/26 10:24:28;;;;;;;2.90;2.70;;;35.30;79.70;;;;;;7379044;19;20420;-79
2022/06/26 10:26:55;;;;;;;3.65;2.60;;;35.80;75.70;;;;;;7379250;19;20352;-79
2022/06/26 10:29:34;;;;;;;4.40;2.80;;;35.80;76.10;;;;;;7379991;19;20349;-79
2022/06/26 10:32:00;;;;;;;2.97;2.67;;;35.70;77.20;;;;;;7376439;19;20344;-79
2022/06/26 10:34:26;;;;;;;3.20;3.00;;;35.50;75.60;;;;;;7379898;19;20412;-79
2022/06/26 10:37:14;;;;;;;2.73;2.53;;;35.00;74.90;;;;;;7378118;19;20926;-79
2022/06/26 10:39:42;;;;;;;3.38;2.70;;;35.30;75.70;;;;;;7378177;19;20374;-78
2022/06/26 10:45:00;;;;;;;3.63;3.08;;;35.60;77.70;;;;;;7274233;19;2004520;-80
2022/06/26 10:47:42;;;;;;;3.63;3.33;;;35.60;78.10;;;;;;7377303;19;20369;-79
2022/06/26 10:50:25;;;;;;;2.90;2.70;;;35.70;76.70;;;;;;7375960;19;20370;-79
2022/06/26 10:52:50;;;;;;;4.00;2.90;;;35.50;75.10;;;;;;7269672;19;2004317;-79
2022/06/26 10:55:16;;;;;;;3.73;3.10;;;35.70;73.20;;;;;;7371894;19;20349;-79
2022/06/26 10:57:41;;;;;;;3.80;2.90;;;35.80;74.20;;;;;;7375068;19;20324;-78
2022/06/26 11:00:10;;;;;;;2.80;2.60;;;35.50;72.60;;;;;;7372811;19;21017;-78
2022/06/26 11:02:40;;;;;;;2.95;2.70;;;35.40;73.20;;;;;;7375541;19;21119;-79
2022/06/26 11:05:07;;;;;;;3.30;3.00;;;35.80;77.80;;;;;;7376237;19;20355;-78
2022/06/26 11:07:49;;;;;;;3.10;2.90;;;35.80;70.00;;;;;;7373605;19;20400;-79
2022/06/26 11:10:20;;;;;;;4.25;3.63;;;35.90;74.40;;;;;;7272040;19;2004394;-78
2022/06/26 11:12:47;;;;;;;4.27;2.93;;;36.10;75.50;;;;;;7376164;19;20348;-78
2022/06/26 11:15:39;;;;;;;2.80;2.60;;;36.00;73.20;;;;;;7379127;19;20345;-79
2022/06/26 11:18:05;;;;;;;2.80;2.60;;;36.00;74.30;;;;;;7376874;19;20637;-77
2022/06/26 11:20:49;;;;;;;3.23;2.93;;;36.10;73.40;;;;;;7374201;19;20332;-78
2022/06/26 11:23:32;;;;;;;2.90;2.70;;;35.60;71.80;;;;;;7277073;19;2005090;-78
2022/06/26 11:25:59;;;;;;;2.88;2.67;;;35.60;72.60;;;;;;7378296;19;20361;-77
2022/06/26 11:28:39;;;;;;;3.47;3.17;;;34.70;70.30;;;;;;7377165;19;20330;-78
2022/06/26 11:31:18;;;;;;;4.03;2.97;;;34.00;72.60;;;;;;7373593;19;20369;-77
2022/06/26 11:33:43;;;;;;;4.57;3.00;;;34.00;76.30;;;;;;7271431;19;2010990;-78
2022/06/26 11:36:11;;;;;;;3.47;2.85;;;34.70;75.20;;;;;;7373945;19;20348;-77
2022/06/26 11:38:37;;;;;;;3.30;2.72;;;34.80;74.30;;;;;;7374422;19;20653;-77
2022/06/26 11:41:06;;;;;;;3.25;2.95;;;35.10;72.40;;;;;;7373209;19;20855;-77
2022/06/26 11:43:32;;;;;;;4.00;3.05;;;35.20;71.60;;;;;;7363169;19;20329;-77
2022/06/26 11:45:58;;;;;;;2.60;2.40;;;35.00;73.50;;;;;;7373247;19;20994;-78
2022/06/26 11:48:24;;;;;;;2.88;2.67;;;35.10;74.20;;;;;;7373591;19;20329;-77
2022/06/26 11:50:51;;;;;;;3.42;3.13;;;34.90;70.70;;;;;;7373049;19;20364;-77
2022/06/26 11:53:24;;;;;;;2.80;2.60;;;34.70;71.60;;;;;;7376208;19;20344;-77
2022/06/26 11:55:55;;;;;;;2.70;2.50;;;33.90;72.80;;;;;;7374720;19;20867;-78
2022/06/26 11:58:25;;;;;;;3.92;2.70;;;34.10;72.50;;;;;;7376384;19;20392;-77
2022/06/26 12:01:03;;;;;;;3.20;2.90;;;34.30;73.40;;;;;;7371625;19;20353;-77
2022/06/26 12:03:29;;;;;;;2.87;2.67;;;34.80;74.80;;;;;;7374499;19;20842;-77
2022/06/26 12:05:55;;;;;;;2.67;2.47;;;35.60;72.40;;;;;;7375755;19;20371;-77
2022/06/26 12:08:21;;;;;;;2.95;2.75;;;36.20;70.20;;;;;;7373489;19;20673;-77
2022/06/26 12:10:50;;;;;;;3.10;2.70;;;36.50;72.80;;;;;;7372198;19;20312;-78
2022/06/26 12:13:29;;;;;;;2.80;2.60;;;36.50;67.90;;;;;;7376682;19;20360;-78
2022/06/26 12:16:03;;;;;;;2.75;2.55;;;37.30;69.10;;;;;;7375862;19;20349;-77
2022/06/26 12:18:28;;;;;;;2.72;2.53;;;37.80;66.50;;;;;;7376679;19;20331;-78
2022/06/26 12:20:54;;;;;;;2.70;2.50;;;38.40;68.50;;;;;;7373796;19;20334;-78
2022/06/26 12:23:30;;;;;;;3.20;2.90;;;39.10;70.30;;;;;;7374689;19;20866;-78
2022/06/26 12:26:03;;;;;;;2.90;2.70;;;38.80;58.70;;;;;;7376701;19;20340;-77
2022/06/26 12:28:28;;;;;;;2.87;2.67;;;38.60;58.20;;;;;;7374804;19;20367;-78
2022/06/26 12:30:54;;;;;;;2.50;2.30;;;38.90;58.70;;;;;;7370741;19;20712;-78
2022/06/26 12:33:20;;;;;;;2.70;2.50;;;39.10;57.40;;;;;;7376162;19;20345;-77
2022/06/26 12:35:45;;;;;;;2.73;2.53;;;39.30;60.20;;;;;;7372211;19;20329;-77
2022/06/26 12:38:11;;;;;;;3.00;2.47;;;39.10;55.60;;;;;;7373639;19;20456;-77
2022/06/26 12:40:37;;;;;;;4.33;2.63;;;39.10;57.30;;;;;;7369922;19;20301;-77
2022/06/26 12:43:03;;;;;;;2.70;2.50;;;39.20;57.50;;;;;;7368810;19;20313;-77
2022/06/26 12:45:28;;;;;;;2.70;2.50;;;39.40;56.20;;;;;;7371637;19;20349;-77
2022/06/26 12:47:54;;;;;;;2.70;2.50;;;39.20;56.60;;;;;;7345810;19;20419;-77
2022/06/26 12:50:19;;;;;;;2.60;2.40;;;38.30;53.70;;;;;;7371336;19;20344;-77
2022/06/26 12:52:45;;;;;;;2.50;2.30;;;39.00;54.60;;;;;;7373998;19;21232;-78
2022/06/26 12:55:11;;;;;;;2.70;2.50;;;39.10;55.50;;;;;;7374273;19;20332;-77
2022/06/26 12:57:36;;;;;;;2.17;2.07;;;39.60;55.50;;;;;;7379629;19;20470;-77
2022/06/26 13:00:03;;;;;;;2.37;2.20;;;40.10;52.10;;;;;;7375126;19;20723;-77
2022/06/26 13:02:29;;;;;;;2.63;2.28;;;39.90;51.70;;;;;;7373587;19;20365;-78